createdAt,value
2024-03-06T00:01:06.056Z,2.64
2024-03-06T00:03:32.936Z,2.88
2024-03-06T00:05:59.656Z,2.77
2024-03-06T00:08:26.417Z,3.26
2024-03-06T00:10:53.212Z,2.97
2024-03-06T00:13:19.951Z,2.85
2024-03-06T00:15:46.726Z,2.72
2024-03-06T00:18:13.502Z,2.85
2024-03-06T00:20:40.300Z,2.78
2024-03-06T00:23:07.103Z,2.94
2024-03-06T00:25:33.899Z,2.79
2024-03-06T00:28:00.614Z,2.89
2024-03-06T00:30:27.389Z,2.86
2024-03-06T00:32:54.090Z,2.83
2024-03-06T00:35:20.888Z,3.00
2024-03-06T00:37:47.610Z,2.79
2024-03-06T00:40:14.347Z,2.99
2024-03-06T00:42:41.051Z,3.03
2024-03-06T00:45:07.729Z,2.85
2024-03-06T00:47:34.455Z,2.63
2024-03-06T00:50:01.240Z,2.86
2024-03-06T00:52:27.935Z,2.85
2024-03-06T00:54:54.617Z,2.92
2024-03-06T00:57:21.278Z,2.72
2024-03-06T00:59:47.955Z,2.83
2024-03-06T01:02:14.744Z,2.81
2024-03-06T01:04:41.470Z,2.81
2024-03-06T01:07:08.157Z,2.82
2024-03-06T01:09:34.873Z,2.96
2024-03-06T01:12:01.559Z,2.95
2024-03-06T01:14:28.259Z,2.93
2024-03-06T01:16:54.985Z,3.29
2024-03-06T01:19:21.698Z,3.19
2024-03-06T01:21:48.388Z,3.08
2024-03-06T01:24:15.087Z,2.95
2024-03-06T01:26:41.777Z,3.22
2024-03-06T01:29:08.496Z,2.89
2024-03-06T01:31:35.174Z,2.90
2024-03-06T01:34:01.863Z,2.90
2024-03-06T01:36:28.520Z,2.86
2024-03-06T01:38:55.186Z,2.99
2024-03-06T01:41:21.854Z,3.17
2024-03-06T01:43:48.585Z,3.17
2024-03-06T01:46:15.292Z,3.06
2024-03-06T01:48:41.999Z,3.23
2024-03-06T01:51:08.690Z,2.92
2024-03-06T01:53:35.519Z,3.05
2024-03-06T01:56:02.465Z,3.01
2024-03-06T01:58:29.231Z,3.01
2024-03-06T02:00:55.940Z,2.83
2024-03-06T02:03:22.891Z,2.61
2024-03-06T02:05:49.864Z,2.52
2024-03-06T02:08:16.631Z,2.26
2024-03-06T02:10:43.422Z,2.34
2024-03-06T02:13:10.254Z,1.96
2024-03-06T02:15:36.932Z,1.84
2024-03-06T02:18:03.646Z,2.23
2024-03-06T02:20:30.585Z,2.33
2024-03-06T02:22:57.377Z,2.41
2024-03-06T02:25:24.063Z,2.22
2024-03-06T02:27:50.751Z,2.25
2024-03-06T02:30:17.448Z,2.26
2024-03-06T02:32:44.151Z,2.41
2024-03-06T02:35:10.962Z,2.46
2024-03-06T02:37:37.702Z,2.49
2024-03-06T02:40:04.459Z,2.57
2024-03-06T02:42:31.233Z,2.44
2024-03-06T02:44:58.252Z,2.67
2024-03-06T02:47:24.986Z,2.97
2024-03-06T02:49:51.705Z,3.07
2024-03-06T02:52:18.368Z,3.11
2024-03-06T02:54:45.037Z,3.37
2024-03-06T02:57:11.721Z,3.44
2024-03-06T02:59:38.447Z,3.15
2024-03-06T03:02:05.178Z,3.20
2024-03-06T03:04:32.038Z,3.37
2024-03-06T03:06:58.752Z,2.87
2024-03-06T03:09:25.424Z,3.18
2024-03-06T03:11:52.109Z,2.87
2024-03-06T03:14:18.817Z,2.76
2024-03-06T03:16:45.542Z,2.52
2024-03-06T03:19:12.204Z,2.67
2024-03-06T03:21:38.852Z,2.59
2024-03-06T03:24:05.538Z,2.61
2024-03-06T03:26:32.226Z,2.50
2024-03-06T03:28:58.935Z,2.27
2024-03-06T03:31:25.686Z,2.19
2024-03-06T03:33:52.342Z,2.17
2024-03-06T03:36:19.052Z,2.13
2024-03-06T03:38:45.820Z,2.15
2024-03-06T03:41:12.637Z,1.91
2024-03-06T03:43:39.410Z,1.86
2024-03-06T03:46:06.143Z,1.90
2024-03-06T03:48:32.847Z,1.90
2024-03-06T03:50:59.502Z,2.13
2024-03-06T03:53:26.222Z,1.87
2024-03-06T03:55:52.931Z,2.02
2024-03-06T03:58:19.651Z,1.97
2024-03-06T04:00:46.334Z,1.98
2024-03-06T04:03:13.007Z,1.94
2024-03-06T04:05:39.671Z,1.79
2024-03-06T04:08:06.422Z,1.92
2024-03-06T04:10:33.131Z,1.81
2024-03-06T04:12:59.966Z,2.08
2024-03-06T04:15:26.705Z,2.05
2024-03-06T04:17:53.403Z,1.89
2024-03-06T04:20:20.229Z,2.05
2024-03-06T04:22:47.073Z,2.03
2024-03-06T04:25:13.808Z,1.77
2024-03-06T04:27:40.541Z,1.91
2024-03-06T04:30:07.343Z,2.06
2024-03-06T04:32:34.070Z,1.76
2024-03-06T04:35:01.028Z,1.80
2024-03-06T04:37:27.776Z,2.08
2024-03-06T04:39:54.447Z,1.81
2024-03-06T04:42:21.116Z,1.70
2024-03-06T04:44:47.801Z,2.15
2024-03-06T04:47:14.594Z,2.12
2024-03-06T04:49:41.411Z,1.69
2024-03-06T04:52:08.104Z,1.92
2024-03-06T04:54:34.767Z,1.79
2024-03-06T04:57:01.474Z,1.89
2024-03-06T04:59:28.156Z,2.02
2024-03-06T05:01:54.934Z,2.17
2024-03-06T06:00:48.855Z,2.67
2024-03-06T06:06:00.498Z,2.80
2024-03-06T06:11:09.164Z,2.54
2024-03-06T06:16:33.274Z,2.86
2024-03-06T06:18:59.959Z,3.09
2024-03-06T06:21:26.641Z,2.80
2024-03-06T06:23:53.306Z,3.26
2024-03-06T06:26:29.203Z,3.21
2024-03-06T06:34:19.221Z,3.27
2024-03-06T06:36:46.541Z,3.56
2024-03-06T06:39:13.379Z,3.27
2024-03-06T06:41:40.110Z,3.55
2024-03-06T06:44:06.811Z,3.26
2024-03-06T06:46:33.464Z,3.26
2024-03-06T06:49:00.136Z,3.57
2024-03-06T06:51:26.847Z,3.53
2024-03-06T06:53:54.051Z,3.53
2024-03-06T06:56:21.552Z,3.63
2024-03-06T06:58:59.807Z,3.38
2024-03-06T07:01:26.558Z,3.45
2024-03-06T07:03:53.225Z,3.42
2024-03-06T07:11:57.796Z,3.25
2024-03-06T07:14:24.477Z,3.33
2024-03-06T07:16:51.515Z,3.36
2024-03-06T07:19:18.483Z,3.45
2024-03-06T07:21:45.008Z,3.43
2024-03-06T07:24:15.100Z,3.20
2024-03-06T07:26:41.708Z,2.84
2024-03-06T07:29:09.311Z,3.19
2024-03-06T07:34:25.476Z,4.06
2024-03-06T07:36:52.142Z,3.37
2024-03-06T07:39:18.770Z,3.68
2024-03-06T07:41:45.331Z,4.03
2024-03-06T07:46:41.177Z,5.81
2024-03-06T07:49:08.282Z,3.28
2024-03-06T07:51:35.987Z,2.98
2024-03-06T07:54:05.538Z,3.13
2024-03-06T07:56:32.109Z,3.30
2024-03-06T07:59:01.132Z,4.01
2024-03-06T08:01:28.004Z,3.94
2024-03-06T08:03:54.667Z,3.46
2024-03-06T08:06:21.352Z,3.18
2024-03-06T08:08:47.944Z,3.53
2024-03-06T08:11:14.552Z,3.26
2024-03-06T08:13:41.286Z,2.98
2024-03-06T08:16:08.306Z,3.15
2024-03-06T08:18:36.169Z,2.97
2024-03-06T08:21:11.962Z,2.83
2024-03-06T08:23:38.714Z,2.95
2024-03-06T08:26:05.456Z,3.26
2024-03-06T08:28:32.144Z,2.89
2024-03-06T08:30:58.814Z,3.05
2024-03-06T08:33:25.644Z,3.49
2024-03-06T08:35:52.773Z,2.88
2024-03-06T08:38:19.769Z,2.61
2024-03-06T08:40:46.465Z,2.91
2024-03-06T08:43:13.251Z,2.81
2024-03-06T08:45:40.023Z,2.47
2024-03-06T08:48:06.739Z,2.79
2024-03-06T08:50:34.749Z,3.02
2024-03-06T08:53:01.568Z,2.95
2024-03-06T08:55:28.360Z,2.94
2024-03-06T08:57:55.042Z,2.56
2024-03-06T09:00:21.720Z,2.92
2024-03-06T09:02:48.563Z,2.77
2024-03-06T09:05:15.372Z,2.80
2024-03-06T09:07:42.420Z,2.80
2024-03-06T09:10:09.255Z,2.42
2024-03-06T09:12:35.956Z,2.41
2024-03-06T09:15:02.644Z,2.39
2024-03-06T09:17:29.393Z,2.26
2024-03-06T09:20:07.796Z,2.24
2024-03-06T09:22:36.276Z,2.19
2024-03-06T09:25:02.990Z,2.55
2024-03-06T09:27:29.695Z,1.55
2024-03-06T09:29:56.218Z,1.67
2024-03-06T09:32:22.859Z,1.56
2024-03-06T09:34:49.433Z,1.58
2024-03-06T09:37:15.979Z,1.35
2024-03-06T09:39:42.650Z,1.36
2024-03-06T09:42:09.176Z,1.54
2024-03-06T09:44:35.760Z,1.39
2024-03-06T09:47:02.456Z,1.51
2024-03-06T09:49:29.034Z,1.79
2024-03-06T09:51:55.556Z,1.56
2024-03-06T09:54:22.091Z,1.41
2024-03-06T09:56:48.719Z,1.33
2024-03-06T09:59:15.302Z,1.11
2024-03-06T10:01:41.817Z,1.43
2024-03-06T10:04:08.343Z,1.14
2024-03-06T10:06:34.873Z,1.29
2024-03-06T10:09:01.389Z,1.18
2024-03-06T10:11:31.694Z,1.11
2024-03-06T10:13:58.344Z,1.25
2024-03-06T10:16:24.930Z,1.24
2024-03-06T10:18:51.574Z,1.06
2024-03-06T10:21:18.137Z,1.16
2024-03-06T10:23:44.806Z,1.21
2024-03-06T10:26:11.559Z,1.14
2024-03-06T10:28:38.329Z,0.99
2024-03-06T10:31:04.994Z,1.07
2024-03-06T10:33:31.773Z,1.07
2024-03-06T10:35:59.947Z,1.01
2024-03-06T10:38:27.838Z,1.00
2024-03-06T10:40:54.613Z,0.99
2024-03-06T10:43:21.301Z,0.89
2024-03-06T10:45:47.992Z,1.07
2024-03-06T10:48:14.782Z,0.85
2024-03-06T10:50:42.041Z,0.80
2024-03-06T10:53:09.169Z,0.87
2024-03-06T10:55:35.887Z,0.97
2024-03-06T10:58:02.626Z,0.99
2024-03-06T11:00:29.423Z,1.11
2024-03-06T11:02:56.109Z,1.06
2024-03-06T11:05:22.858Z,0.94
2024-03-06T11:07:49.567Z,1.04
2024-03-06T11:10:16.234Z,0.99
2024-03-06T11:12:42.916Z,0.78
2024-03-06T11:15:09.590Z,0.82
2024-03-06T11:17:36.415Z,0.76
2024-03-06T11:20:03.337Z,0.81
2024-03-06T11:22:30.093Z,0.88
2024-03-06T11:24:56.776Z,0.94
2024-03-06T11:27:23.423Z,0.87
2024-03-06T11:29:50.203Z,0.82
2024-03-06T11:32:17.207Z,0.86
2024-03-06T11:34:44.056Z,0.72
2024-03-06T11:37:11.219Z,0.80
2024-03-06T11:39:38.268Z,0.75
2024-03-06T11:42:05.053Z,0.88
2024-03-06T11:44:31.881Z,0.82
2024-03-06T11:46:58.554Z,0.86
2024-03-06T11:49:25.295Z,0.79
2024-03-06T11:51:52.126Z,0.79
2024-03-06T11:54:18.841Z,0.82
2024-03-06T11:56:45.581Z,0.97
2024-03-06T11:59:12.330Z,0.95
2024-03-06T12:01:39.020Z,0.87
2024-03-06T12:04:05.692Z,0.71
2024-03-06T12:06:32.343Z,0.91
2024-03-06T12:08:59.031Z,1.11
2024-03-06T12:11:25.825Z,0.95
2024-03-06T12:13:52.571Z,0.69
2024-03-06T12:16:19.253Z,0.58
2024-03-06T12:18:45.933Z,0.68
2024-03-06T12:21:12.599Z,0.69
2024-03-06T12:23:39.500Z,0.64
2024-03-06T12:26:07.010Z,0.71
2024-03-06T12:28:33.945Z,0.69
2024-03-06T12:31:00.594Z,0.80
2024-03-06T12:33:27.292Z,1.22
2024-03-06T12:35:53.999Z,1.14
2024-03-06T12:38:20.825Z,1.19
2024-03-06T12:40:47.510Z,0.68
2024-03-06T12:43:14.175Z,0.80
2024-03-06T12:45:40.861Z,0.92
2024-03-06T12:48:07.632Z,0.84
2024-03-06T12:50:34.369Z,1.05
2024-03-06T12:53:01.101Z,0.91
2024-03-06T12:55:27.791Z,0.92
2024-03-06T12:57:54.482Z,0.67
2024-03-06T13:00:21.148Z,0.75
2024-03-06T13:02:47.975Z,0.80
2024-03-06T13:05:14.818Z,1.15
2024-03-06T13:07:41.640Z,1.35
2024-03-06T13:10:08.298Z,0.85
2024-03-06T13:12:34.966Z,0.86
2024-03-06T13:15:01.811Z,0.88
2024-03-06T13:17:28.550Z,0.72
2024-03-06T13:19:55.249Z,1.24
2024-03-06T13:22:21.905Z,1.30
2024-03-06T13:24:51.065Z,1.39
2024-03-06T13:27:18.087Z,0.82
2024-03-06T13:29:44.936Z,0.79
2024-03-06T13:32:11.760Z,0.87
2024-03-06T13:34:38.471Z,0.82
2024-03-06T13:37:05.140Z,0.73
2024-03-06T13:39:31.835Z,1.02
2024-03-06T13:41:58.560Z,1.36
2024-03-06T13:44:25.249Z,1.06
2024-03-06T13:46:51.926Z,0.83
2024-03-06T13:49:18.625Z,0.80
2024-03-06T13:51:45.292Z,0.98
2024-03-06T13:54:12.010Z,1.00
2024-03-06T13:56:38.684Z,1.24
2024-03-06T13:59:05.382Z,1.09
2024-03-06T14:01:32.111Z,1.01
2024-03-06T14:04:00.275Z,0.94
2024-03-06T14:06:28.206Z,0.98
2024-03-06T14:08:54.890Z,0.84
2024-03-06T14:11:21.715Z,0.80
2024-03-06T14:13:48.408Z,0.94
2024-03-06T14:16:15.070Z,0.97
2024-03-06T14:18:41.836Z,1.01
2024-03-06T14:21:08.522Z,0.93
2024-03-06T14:23:35.238Z,0.95
2024-03-06T14:26:01.975Z,0.85
2024-03-06T14:28:28.664Z,0.83
2024-03-06T14:30:55.323Z,0.79
2024-03-06T14:33:22.155Z,0.89
2024-03-06T14:35:48.929Z,0.98
2024-03-06T14:38:15.701Z,0.98
2024-03-06T14:40:42.396Z,1.22
2024-03-06T14:43:09.103Z,1.46
2024-03-06T14:45:35.816Z,1.04
2024-03-06T14:48:02.601Z,1.62
2024-03-06T14:50:29.602Z,1.32
2024-03-06T14:52:56.346Z,0.99
2024-03-06T14:55:23.007Z,1.04
2024-03-06T14:57:49.682Z,1.05
2024-03-06T15:00:16.355Z,1.02
2024-03-06T15:02:43.114Z,0.96
2024-03-06T15:05:09.876Z,1.14
2024-03-06T15:07:36.607Z,0.99
2024-03-06T15:10:03.301Z,1.05
2024-03-06T15:12:30.065Z,1.00
2024-03-06T15:14:58.169Z,1.13
2024-03-06T15:17:25.474Z,1.25
2024-03-06T15:19:52.255Z,1.19
2024-03-06T15:22:18.920Z,1.51
2024-03-06T15:24:45.585Z,1.31
2024-03-06T15:27:12.248Z,1.29
2024-03-06T15:29:38.954Z,1.26
2024-03-06T15:32:05.793Z,0.88
2024-03-06T15:34:32.666Z,1.00
2024-03-06T15:36:59.368Z,0.96
2024-03-06T15:39:26.034Z,1.09
2024-03-06T15:41:52.790Z,1.06
2024-03-06T15:44:19.555Z,1.32
2024-03-06T15:46:52.169Z,1.04
2024-03-06T15:49:26.358Z,1.09
2024-03-06T15:51:53.042Z,0.93
2024-03-06T15:54:19.804Z,1.05
2024-03-06T15:56:46.566Z,1.02
2024-03-06T15:59:13.311Z,1.01
2024-03-06T16:01:51.491Z,0.91
2024-03-06T16:04:18.242Z,0.85
2024-03-06T16:06:45.038Z,1.09
2024-03-06T16:09:11.770Z,1.40
2024-03-06T16:11:38.532Z,2.17
2024-03-06T16:14:05.467Z,4.21
2024-03-06T16:16:32.280Z,5.54
2024-03-06T16:18:59.078Z,18.60
2024-03-06T16:21:25.816Z,25.37
2024-03-06T16:23:52.593Z,21.32
2024-03-06T16:26:19.351Z,7.58
2024-03-06T16:28:46.074Z,4.08
2024-03-06T16:31:12.857Z,1.43
2024-03-06T16:33:39.741Z,1.22
2024-03-06T16:36:09.614Z,1.38
2024-03-06T16:38:36.619Z,1.01
2024-03-06T16:41:03.414Z,1.12
2024-03-06T16:43:30.191Z,1.04
2024-03-06T16:45:57.011Z,0.95
2024-03-06T16:48:24.385Z,1.28
2024-03-06T16:50:51.523Z,2.40
2024-03-06T16:53:18.380Z,1.51
2024-03-06T16:55:45.087Z,1.62
2024-03-06T16:58:11.763Z,1.15
2024-03-06T17:00:38.547Z,1.10
2024-03-06T17:03:05.251Z,1.09
2024-03-06T17:05:32.761Z,1.44
2024-03-06T17:07:59.774Z,1.55
2024-03-06T17:10:26.463Z,1.59
2024-03-06T17:12:53.118Z,1.65
2024-03-06T17:15:19.800Z,1.56
2024-03-06T17:17:46.755Z,2.22
2024-03-06T17:20:13.610Z,2.24
2024-03-06T17:22:40.383Z,2.05
2024-03-06T17:25:07.050Z,1.35
2024-03-06T17:27:33.713Z,1.13
2024-03-06T17:30:00.381Z,1.31
2024-03-06T17:32:27.221Z,2.12
2024-03-06T17:34:53.945Z,4.08
2024-03-06T17:37:20.619Z,5.72
2024-03-06T17:39:47.280Z,6.11
2024-03-06T17:42:13.999Z,4.55
2024-03-06T17:44:40.714Z,4.32
2024-03-06T17:47:07.448Z,4.37
2024-03-06T17:49:34.170Z,4.81
2024-03-06T17:52:00.838Z,5.14
2024-03-06T17:54:27.519Z,3.61
2024-03-06T17:56:54.306Z,3.26
2024-03-06T17:59:21.095Z,3.61
2024-03-06T18:01:49.012Z,4.19
2024-03-06T18:04:15.694Z,4.06
2024-03-06T18:06:42.414Z,3.77
2024-03-06T18:09:09.101Z,3.37
2024-03-06T18:11:35.831Z,3.51
2024-03-06T18:14:02.615Z,3.71
2024-03-06T18:16:29.296Z,4.38
2024-03-06T18:18:55.948Z,4.31
2024-03-06T18:21:22.667Z,4.59
2024-03-06T18:23:49.393Z,5.07
2024-03-06T18:26:16.120Z,5.25
2024-03-06T18:28:42.805Z,4.09
2024-03-06T18:31:09.537Z,3.93
2024-03-06T18:33:36.317Z,4.39
2024-03-06T18:36:03.126Z,4.96
2024-03-06T18:38:29.838Z,7.08
2024-03-06T18:40:56.649Z,7.02
2024-03-06T18:43:23.354Z,6.50
2024-03-06T18:45:51.950Z,5.75
2024-03-06T18:48:18.690Z,5.28
2024-03-06T18:50:45.467Z,4.31
2024-03-06T18:53:12.218Z,4.08
2024-03-06T18:55:39.017Z,4.14
2024-03-06T18:58:05.721Z,4.15
2024-03-06T19:00:32.601Z,4.02
2024-03-06T19:02:59.352Z,4.09
2024-03-06T19:05:26.092Z,3.87
2024-03-06T19:07:52.781Z,3.90
2024-03-06T19:10:19.599Z,3.21
2024-03-06T19:12:46.356Z,3.18
2024-03-06T19:15:13.058Z,3.30
2024-03-06T19:17:39.939Z,3.38
2024-03-06T19:20:07.468Z,3.37
2024-03-06T19:22:34.613Z,3.60
2024-03-06T19:25:01.680Z,3.86
2024-03-06T19:27:31.658Z,3.53
2024-03-06T19:30:00.915Z,3.68
2024-03-06T19:32:39.036Z,3.54
2024-03-06T19:35:14.406Z,3.59
2024-03-06T19:37:44.241Z,3.64
2024-03-06T19:40:11.072Z,3.77
2024-03-06T19:42:38.047Z,3.93
2024-03-06T19:45:04.772Z,3.82
2024-03-06T19:47:31.403Z,3.64
2024-03-06T19:49:58.012Z,3.65
2024-03-06T19:52:25.098Z,3.64
2024-03-06T19:54:51.942Z,3.47
2024-03-06T19:57:18.522Z,3.78
2024-03-06T19:59:45.180Z,4.02
2024-03-06T20:02:11.885Z,4.23
2024-03-06T20:04:38.471Z,4.17
2024-03-06T20:07:05.030Z,4.21
2024-03-06T20:09:31.675Z,4.07
2024-03-06T20:11:59.024Z,4.26
2024-03-06T20:14:25.821Z,4.36
2024-03-06T20:16:52.452Z,4.50
2024-03-06T20:19:19.027Z,4.05
2024-03-06T20:21:45.668Z,4.08
2024-03-06T20:24:13.401Z,4.35
2024-03-06T20:26:39.973Z,4.30
2024-03-06T20:29:07.440Z,4.17
2024-03-06T20:31:36.561Z,3.67
2024-03-06T20:34:03.114Z,3.48
2024-03-06T20:36:29.679Z,3.33
2024-03-06T20:38:56.343Z,2.97
2024-03-06T20:41:23.245Z,3.22
2024-03-06T20:43:51.916Z,3.13
2024-03-06T20:46:18.806Z,3.31
2024-03-06T20:48:45.483Z,3.39
2024-03-06T20:51:12.152Z,3.28
2024-03-06T20:53:38.886Z,3.62
2024-03-06T20:56:05.599Z,3.83
2024-03-06T20:58:32.298Z,3.91
2024-03-06T21:00:59.543Z,4.21
2024-03-06T21:03:27.011Z,4.35
2024-03-06T21:05:53.738Z,4.50
2024-03-06T21:08:20.488Z,4.41
2024-03-06T21:10:47.262Z,4.45
2024-03-06T21:13:14.017Z,4.01
2024-03-06T21:15:40.720Z,4.22
2024-03-06T21:18:07.630Z,4.29
2024-03-06T21:20:34.588Z,4.14
2024-03-06T21:23:01.349Z,4.08
2024-03-06T21:25:28.068Z,4.13
2024-03-06T21:27:54.820Z,4.23
2024-03-06T21:30:21.659Z,4.15
2024-03-06T21:32:48.362Z,4.33
2024-03-06T21:35:15.138Z,4.36
2024-03-06T21:37:41.897Z,4.12
2024-03-06T21:40:08.565Z,4.30
2024-03-06T21:42:35.244Z,4.24
2024-03-06T21:45:01.948Z,4.11
2024-03-06T21:47:28.679Z,4.29
2024-03-06T21:49:55.399Z,3.80
2024-03-06T21:52:22.244Z,3.95
2024-03-06T21:54:48.942Z,3.83
2024-03-06T21:57:15.643Z,3.88
2024-03-06T21:59:42.491Z,4.10
2024-03-06T22:02:09.364Z,3.80
2024-03-06T22:04:36.069Z,3.49
2024-03-06T22:07:02.752Z,3.71
2024-03-06T22:09:29.465Z,3.61
2024-03-06T22:11:56.205Z,3.44
2024-03-06T22:14:23.011Z,3.82
2024-03-06T22:16:49.759Z,4.40
2024-03-06T22:19:16.438Z,4.10
2024-03-06T22:21:43.221Z,4.07
2024-03-06T22:24:10.195Z,3.89
2024-03-06T22:26:36.918Z,4.05
2024-03-06T22:29:03.635Z,4.11
2024-03-06T22:31:30.308Z,4.19
2024-03-06T22:33:57.001Z,4.59
2024-03-06T22:36:23.755Z,4.46
2024-03-06T22:38:50.582Z,4.45
2024-03-06T22:41:17.354Z,4.79
2024-03-06T22:43:44.065Z,4.93
2024-03-06T22:46:10.734Z,5.18
2024-03-06T22:48:37.584Z,5.26
2024-03-06T22:51:04.289Z,5.25
2024-03-06T22:53:31.223Z,5.28
2024-03-06T22:55:57.924Z,5.15
2024-03-06T22:58:24.666Z,5.16
2024-03-06T23:00:51.436Z,5.26
2024-03-06T23:03:18.205Z,5.29
2024-03-06T23:05:44.971Z,5.53
2024-03-06T23:08:13.670Z,5.12
2024-03-06T23:10:40.406Z,4.93
2024-03-06T23:13:07.192Z,5.32
2024-03-06T23:15:33.905Z,5.76
2024-03-06T23:18:00.832Z,5.77
2024-03-06T23:20:27.880Z,5.89
2024-03-06T23:22:54.583Z,6.10
2024-03-06T23:25:21.249Z,5.94
2024-03-06T23:27:47.904Z,6.40
2024-03-06T23:30:14.545Z,6.53
2024-03-06T23:32:41.290Z,6.74
2024-03-06T23:35:07.993Z,6.48
2024-03-06T23:37:34.728Z,6.51
2024-03-06T23:40:01.456Z,6.91
2024-03-06T23:42:28.167Z,6.36
2024-03-06T23:44:55.018Z,6.58
2024-03-06T23:47:21.784Z,6.85
2024-03-06T23:49:48.490Z,6.53
2024-03-06T23:52:15.146Z,6.75
2024-03-06T23:54:41.834Z,6.78
2024-03-06T23:57:08.383Z,6.59
2024-03-06T23:59:34.934Z,6.82
